sensor_id;sensor_type;location;lat;lon;timestamp;temperature;humidity
53711;DHT22;39605;52.704;6.752;2022-10-29T00:00:24;13.40;99.90
53711;DHT22;39605;52.704;6.752;2022-10-29T00:02:49;13.40;99.90
53711;DHT22;39605;52.704;6.752;2022-10-29T00:05:15;13.40;99.90
53711;DHT22;39605;52.704;6.752;2022-10-29T00:07:41;13.40;99.90
53711;DHT22;39605;52.704;6.752;2022-10-29T00:10:07;13.40;99.90
53711;DHT22;39605;52.704;6.752;2022-10-29T00:12:33;13.40;99.90
53711;DHT22;39605;52.704;6.752;2022-10-29T00:14:58;13.40;99.90
53711;DHT22;39605;52.704;6.752;2022-10-29T00:17:24;13.40;99.90
53711;DHT22;39605;52.704;6.752;2022-10-29T00:19:49;13.40;99.90
53711;DHT22;39605;52.704;6.752;2022-10-29T00:22:15;13.40;99.90
53711;DHT22;39605;52.704;6.752;2022-10-29T00:24:41;13.40;99.90
53711;DHT22;39605;52.704;6.752;2022-10-29T00:27:06;13.50;99.90
53711;DHT22;39605;52.704;6.752;2022-10-29T00:29:32;13.50;99.90
53711;DHT22;39605;52.704;6.752;2022-10-29T00:31:57;13.50;99.90
53711;DHT22;39605;52.704;6.752;2022-10-29T00:34:23;13.50;99.90
53711;DHT22;39605;52.704;6.752;2022-10-29T00:36:49;13.40;99.90
53711;DHT22;39605;52.704;6.752;2022-10-29T00:39:15;13.50;99.90
53711;DHT22;39605;52.704;6.752;2022-10-29T00:41:41;13.50;99.90
53711;DHT22;39605;52.704;6.752;2022-10-29T00:49:34;13.50;99.90
53711;DHT22;39605;52.704;6.752;2022-10-29T00:52:02;13.50;99.90
53711;DHT22;39605;52.704;6.752;2022-10-29T00:54:30;13.50;99.90
53711;DHT22;39605;52.704;6.752;2022-10-29T00:57:03;13.40;99.90
53711;DHT22;39605;52.704;6.752;2022-10-29T00:59:31;13.40;99.90
53711;DHT22;39605;52.704;6.752;2022-10-29T01:01:57;13.40;99.90
53711;DHT22;39605;52.704;6.752;2022-10-29T01:04:23;13.40;99.90
53711;DHT22;39605;52.704;6.752;2022-10-29T01:06:49;13.30;99.90
53711;DHT22;39605;52.704;6.752;2022-10-29T01:09:16;13.20;99.90
53711;DHT22;39605;52.704;6.752;2022-10-29T01:12:18;13.20;99.90
53711;DHT22;39605;52.704;6.752;2022-10-29T01:18:12;13.20;99.90
53711;DHT22;39605;52.704;6.752;2022-10-29T01:32:11;13.10;99.90
53711;DHT22;39605;52.704;6.752;2022-10-29T01:40:06;13.10;99.90
53711;DHT22;39605;52.704;6.752;2022-10-29T01:42:52;13.20;99.90
53711;DHT22;39605;52.704;6.752;2022-10-29T01:48:04;13.10;99.90
53711;DHT22;39605;52.704;6.752;2022-10-29T01:50:33;13.10;99.90
53711;DHT22;39605;52.704;6.752;2022-10-29T01:53:02;13.00;99.90
53711;DHT22;39605;52.704;6.752;2022-10-29T01:55:30;13.10;99.90
53711;DHT22;39605;52.704;6.752;2022-10-29T01:58:00;13.00;99.90
53711;DHT22;39605;52.704;6.752;2022-10-29T02:00:31;13.00;99.90
53711;DHT22;39605;52.704;6.752;2022-10-29T02:06:22;12.90;99.90
53711;DHT22;39605;52.704;6.752;2022-10-29T02:09:01;12.80;99.90
53711;DHT22;39605;52.704;6.752;2022-10-29T02:11:32;12.90;99.90
53711;DHT22;39605;52.704;6.752;2022-10-29T02:14:03;12.80;99.90
53711;DHT22;39605;52.704;6.752;2022-10-29T02:16:31;12.80;99.90
53711;DHT22;39605;52.704;6.752;2022-10-29T02:18:58;12.70;99.90
53711;DHT22;39605;52.704;6.752;2022-10-29T02:21:24;12.70;99.90
53711;DHT22;39605;52.704;6.752;2022-10-29T02:23:50;12.60;99.90
53711;DHT22;39605;52.704;6.752;2022-10-29T02:26:16;12.50;99.90
53711;DHT22;39605;52.704;6.752;2022-10-29T02:28:42;12.50;99.90
53711;DHT22;39605;52.704;6.752;2022-10-29T02:31:07;12.50;99.90
53711;DHT22;39605;52.704;6.752;2022-10-29T02:33:33;12.40;99.90
53711;DHT22;39605;52.704;6.752;2022-10-29T02:35:59;12.40;99.90
53711;DHT22;39605;52.704;6.752;2022-10-29T02:38:24;12.50;99.90
53711;DHT22;39605;52.704;6.752;2022-10-29T02:40:50;12.40;99.90
53711;DHT22;39605;52.704;6.752;2022-10-29T02:43:16;12.40;99.90
53711;DHT22;39605;52.704;6.752;2022-10-29T02:45:41;12.30;99.90
53711;DHT22;39605;52.704;6.752;2022-10-29T02:48:07;12.40;99.90
53711;DHT22;39605;52.704;6.752;2022-10-29T02:50:33;12.30;99.90
53711;DHT22;39605;52.704;6.752;2022-10-29T02:52:58;12.20;99.90
53711;DHT22;39605;52.704;6.752;2022-10-29T02:55:24;12.20;99.90
53711;DHT22;39605;52.704;6.752;2022-10-29T02:57:50;12.10;99.90
53711;DHT22;39605;52.704;6.752;2022-10-29T03:00:15;12.10;99.90
53711;DHT22;39605;52.704;6.752;2022-10-29T03:02:41;12.20;99.90
53711;DHT22;39605;52.704;6.752;2022-10-29T03:05:07;12.20;99.90
53711;DHT22;39605;52.704;6.752;2022-10-29T03:07:37;12.20;99.90
53711;DHT22;39605;52.704;6.752;2022-10-29T03:10:04;12.20;99.90
53711;DHT22;39605;52.704;6.752;2022-10-29T03:12:30;12.20;99.90
53711;DHT22;39605;52.704;6.752;2022-10-29T03:14:56;12.20;99.90
53711;DHT22;39605;52.704;6.752;2022-10-29T03:17:21;12.10;99.90
53711;DHT22;39605;52.704;6.752;2022-10-29T03:19:47;12.10;99.90
53711;DHT22;39605;52.704;6.752;2022-10-29T03:22:13;12.10;99.90
53711;DHT22;39605;52.704;6.752;2022-10-29T03:24:38;12.00;99.90
53711;DHT22;39605;52.704;6.752;2022-10-29T03:27:04;12.00;99.90
53711;DHT22;39605;52.704;6.752;2022-10-29T03:29:30;12.00;99.90
53711;DHT22;39605;52.704;6.752;2022-10-29T03:31:55;12.00;99.90
53711;DHT22;39605;52.704;6.752;2022-10-29T03:34:21;11.90;99.90
53711;DHT22;39605;52.704;6.752;2022-10-29T03:36:47;11.90;99.90
53711;DHT22;39605;52.704;6.752;2022-10-29T03:39:12;11.90;99.90
53711;DHT22;39605;52.704;6.752;2022-10-29T03:41:38;11.90;99.90
53711;DHT22;39605;52.704;6.752;2022-10-29T03:44:04;11.90;99.90
53711;DHT22;39605;52.704;6.752;2022-10-29T03:46:29;11.90;99.90
53711;DHT22;39605;52.704;6.752;2022-10-29T03:48:55;12.00;99.90
53711;DHT22;39605;52.704;6.752;2022-10-29T03:51:20;12.00;99.90
53711;DHT22;39605;52.704;6.752;2022-10-29T03:53:46;12.00;99.90
53711;DHT22;39605;52.704;6.752;2022-10-29T03:56:12;12.10;99.90
53711;DHT22;39605;52.704;6.752;2022-10-29T03:58:37;12.10;99.90
53711;DHT22;39605;52.704;6.752;2022-10-29T04:01:08;12.20;99.90
53711;DHT22;39605;52.704;6.752;2022-10-29T04:03:35;12.30;99.90
53711;DHT22;39605;52.704;6.752;2022-10-29T04:06:12;12.30;99.90
53711;DHT22;39605;52.704;6.752;2022-10-29T04:08:38;12.30;99.90
53711;DHT22;39605;52.704;6.752;2022-10-29T04:11:04;12.20;99.90
53711;DHT22;39605;52.704;6.752;2022-10-29T04:13:30;12.20;99.90
53711;DHT22;39605;52.704;6.752;2022-10-29T04:15:55;12.10;99.90
53711;DHT22;39605;52.704;6.752;2022-10-29T04:18:22;12.20;99.90
53711;DHT22;39605;52.704;6.752;2022-10-29T04:20:48;12.10;99.90
53711;DHT22;39605;52.704;6.752;2022-10-29T04:23:14;12.10;99.90
53711;DHT22;39605;52.704;6.752;2022-10-29T04:25:39;12.10;99.90
53711;DHT22;39605;52.704;6.752;2022-10-29T04:28:05;12.00;99.90
53711;DHT22;39605;52.704;6.752;2022-10-29T04:30:31;12.00;99.90
53711;DHT22;39605;52.704;6.752;2022-10-29T04:32:58;12.00;99.90
53711;DHT22;39605;52.704;6.752;2022-10-29T04:35:25;12.00;99.90
53711;DHT22;39605;52.704;6.752;2022-10-29T04:37:50;12.10;99.90
53711;DHT22;39605;52.704;6.752;2022-10-29T04:40:16;12.10;99.90
53711;DHT22;39605;52.704;6.752;2022-10-29T04:42:42;12.10;99.90
53711;DHT22;39605;52.704;6.752;2022-10-29T04:45:08;12.10;99.90
53711;DHT22;39605;52.704;6.752;2022-10-29T04:47:33;12.10;99.90
53711;DHT22;39605;52.704;6.752;2022-10-29T04:49:59;12.10;99.90
53711;DHT22;39605;52.704;6.752;2022-10-29T04:52:25;12.20;99.90
53711;DHT22;39605;52.704;6.752;2022-10-29T04:54:51;12.10;99.90
53711;DHT22;39605;52.704;6.752;2022-10-29T04:57:16;12.10;99.90
53711;DHT22;39605;52.704;6.752;2022-10-29T04:59:42;12.10;99.90
53711;DHT22;39605;52.704;6.752;2022-10-29T05:02:09;12.10;99.90
53711;DHT22;39605;52.704;6.752;2022-10-29T05:04:35;12.00;99.90
53711;DHT22;39605;52.704;6.752;2022-10-29T05:07:00;12.00;99.90
53711;DHT22;39605;52.704;6.752;2022-10-29T05:09:26;12.00;99.90
53711;DHT22;39605;52.704;6.752;2022-10-29T05:11:51;11.90;99.90
53711;DHT22;39605;52.704;6.752;2022-10-29T05:14:17;11.90;99.90
53711;DHT22;39605;52.704;6.752;2022-10-29T05:16:43;11.90;99.90
53711;DHT22;39605;52.704;6.752;2022-10-29T05:19:09;11.90;99.90
53711;DHT22;39605;52.704;6.752;2022-10-29T05:21:34;11.80;99.90
53711;DHT22;39605;52.704;6.752;2022-10-29T05:24:00;11.90;99.90
53711;DHT22;39605;52.704;6.752;2022-10-29T05:26:26;12.00;99.90
53711;DHT22;39605;52.704;6.752;2022-10-29T05:28:51;12.00;99.90
53711;DHT22;39605;52.704;6.752;2022-10-29T05:31:17;12.10;99.90
53711;DHT22;39605;52.704;6.752;2022-10-29T05:33:43;12.10;99.90
53711;DHT22;39605;52.704;6.752;2022-10-29T05:36:09;12.10;99.90
53711;DHT22;39605;52.704;6.752;2022-10-29T05:38:35;12.10;99.90
53711;DHT22;39605;52.704;6.752;2022-10-29T05:41:00;12.10;99.90
53711;DHT22;39605;52.704;6.752;2022-10-29T05:43:26;12.20;99.90
53711;DHT22;39605;52.704;6.752;2022-10-29T05:45:52;12.10;99.90
53711;DHT22;39605;52.704;6.752;2022-10-29T05:48:18;12.10;99.90
53711;DHT22;39605;52.704;6.752;2022-10-29T05:50:43;12.20;99.90
53711;DHT22;39605;52.704;6.752;2022-10-29T05:53:11;12.10;99.90
53711;DHT22;39605;52.704;6.752;2022-10-29T05:55:38;12.10;99.90
53711;DHT22;39605;52.704;6.752;2022-10-29T05:58:07;12.10;99.90
53711;DHT22;39605;52.704;6.752;2022-10-29T06:00:36;12.10;99.90
53711;DHT22;39605;52.704;6.752;2022-10-29T06:03:03;12.10;99.90
53711;DHT22;39605;52.704;6.752;2022-10-29T06:05:29;12.10;99.90
53711;DHT22;39605;52.704;6.752;2022-10-29T06:07:58;12.10;99.90
53711;DHT22;39605;52.704;6.752;2022-10-29T06:10:28;12.10;99.90
53711;DHT22;39605;52.704;6.752;2022-10-29T06:12:54;12.10;99.90
53711;DHT22;39605;52.704;6.752;2022-10-29T06:15:20;12.20;99.90
53711;DHT22;39605;52.704;6.752;2022-10-29T06:17:46;12.10;99.90
53711;DHT22;39605;52.704;6.752;2022-10-29T06:20:14;12.20;99.90
53711;DHT22;39605;52.704;6.752;2022-10-29T06:22:40;12.10;99.90
53711;DHT22;39605;52.704;6.752;2022-10-29T06:25:06;12.00;99.90
53711;DHT22;39605;52.704;6.752;2022-10-29T06:27:32;12.10;99.90
53711;DHT22;39605;52.704;6.752;2022-10-29T06:29:57;12.10;99.90
53711;DHT22;39605;52.704;6.752;2022-10-29T06:32:23;12.00;99.90
53711;DHT22;39605;52.704;6.752;2022-10-29T06:34:49;11.90;99.90
53711;DHT22;39605;52.704;6.752;2022-10-29T06:37:14;12.00;99.90
53711;DHT22;39605;52.704;6.752;2022-10-29T06:39:40;11.90;99.90
53711;DHT22;39605;52.704;6.752;2022-10-29T06:42:05;12.00;99.90
53711;DHT22;39605;52.704;6.752;2022-10-29T06:44:31;12.00;99.90
53711;DHT22;39605;52.704;6.752;2022-10-29T06:46:57;12.00;99.90
53711;DHT22;39605;52.704;6.752;2022-10-29T06:49:22;12.00;99.90
53711;DHT22;39605;52.704;6.752;2022-10-29T06:51:48;12.00;99.90
53711;DHT22;39605;52.704;6.752;2022-10-29T06:54:14;12.00;99.90
53711;DHT22;39605;52.704;6.752;2022-10-29T06:56:39;12.00;99.90
53711;DHT22;39605;52.704;6.752;2022-10-29T06:59:05;12.10;99.90
53711;DHT22;39605;52.704;6.752;2022-10-29T07:01:31;12.20;99.90
53711;DHT22;39605;52.704;6.752;2022-10-29T07:03:58;12.10;99.90
53711;DHT22;39605;52.704;6.752;2022-10-29T07:06:24;12.20;99.90
53711;DHT22;39605;52.704;6.752;2022-10-29T07:08:50;12.20;99.90
53711;DHT22;39605;52.704;6.752;2022-10-29T07:11:15;12.30;99.90
53711;DHT22;39605;52.704;6.752;2022-10-29T07:13:41;12.30;99.90
53711;DHT22;39605;52.704;6.752;2022-10-29T07:16:07;12.30;99.90
53711;DHT22;39605;52.704;6.752;2022-10-29T07:18:33;12.40;99.90
53711;DHT22;39605;52.704;6.752;2022-10-29T07:21:01;12.40;99.90
53711;DHT22;39605;52.704;6.752;2022-10-29T07:23:27;12.40;99.90
53711;DHT22;39605;52.704;6.752;2022-10-29T07:25:52;12.50;99.90
53711;DHT22;39605;52.704;6.752;2022-10-29T07:28:20;12.50;99.90
53711;DHT22;39605;52.704;6.752;2022-10-29T07:30:48;12.50;99.90
53711;DHT22;39605;52.704;6.752;2022-10-29T07:33:14;12.50;99.90
53711;DHT22;39605;52.704;6.752;2022-10-29T07:35:40;12.50;99.90
53711;DHT22;39605;52.704;6.752;2022-10-29T07:38:07;12.50;99.90
53711;DHT22;39605;52.704;6.752;2022-10-29T07:40:33;12.50;99.90
53711;DHT22;39605;52.704;6.752;2022-10-29T07:42:59;12.60;99.90
53711;DHT22;39605;52.704;6.752;2022-10-29T07:45:25;12.70;99.90
53711;DHT22;39605;52.704;6.752;2022-10-29T07:48:05;12.70;99.90
53711;DHT22;39605;52.704;6.752;2022-10-29T07:50:34;12.80;99.90
53711;DHT22;39605;52.704;6.752;2022-10-29T07:53:00;12.80;99.90
53711;DHT22;39605;52.704;6.752;2022-10-29T07:55:27;12.90;99.90
53711;DHT22;39605;52.704;6.752;2022-10-29T07:57:56;13.00;99.90
53711;DHT22;39605;52.704;6.752;2022-10-29T08:00:24;13.00;99.90
53711;DHT22;39605;52.704;6.752;2022-10-29T08:02:52;13.20;99.90
53711;DHT22;39605;52.704;6.752;2022-10-29T08:05:18;13.30;99.90
53711;DHT22;39605;52.704;6.752;2022-10-29T08:07:43;13.40;99.90
53711;DHT22;39605;52.704;6.752;2022-10-29T08:10:09;13.50;99.90
53711;DHT22;39605;52.704;6.752;2022-10-29T08:12:34;13.60;99.90
53711;DHT22;39605;52.704;6.752;2022-10-29T08:15:00;13.60;99.90
53711;DHT22;39605;52.704;6.752;2022-10-29T08:17:28;13.70;99.90
53711;DHT22;39605;52.704;6.752;2022-10-29T08:19:54;13.70;99.90
53711;DHT22;39605;52.704;6.752;2022-10-29T08:22:19;13.80;99.90
53711;DHT22;39605;52.704;6.752;2022-10-29T08:24:45;13.90;99.90
53711;DHT22;39605;52.704;6.752;2022-10-29T08:27:11;13.90;99.90
53711;DHT22;39605;52.704;6.752;2022-10-29T08:29:36;13.90;99.90
53711;DHT22;39605;52.704;6.752;2022-10-29T08:32:02;13.90;99.90
53711;DHT22;39605;52.704;6.752;2022-10-29T08:34:27;13.90;99.90
53711;DHT22;39605;52.704;6.752;2022-10-29T08:36:53;14.00;99.90
53711;DHT22;39605;52.704;6.752;2022-10-29T08:39:19;14.00;99.90
53711;DHT22;39605;52.704;6.752;2022-10-29T08:52:27;14.50;99.90
53711;DHT22;39605;52.704;6.752;2022-10-29T08:57:35;14.80;99.90
53711;DHT22;39605;52.704;6.752;2022-10-29T09:00:04;14.90;99.90
53711;DHT22;39605;52.704;6.752;2022-10-29T09:02:30;15.00;99.90
53711;DHT22;39605;52.704;6.752;2022-10-29T09:04:56;15.30;99.90
53711;DHT22;39605;52.704;6.752;2022-10-29T09:13:08;15.70;99.90
53711;DHT22;39605;52.704;6.752;2022-10-29T09:21:04;15.60;99.90
53711;DHT22;39605;52.704;6.752;2022-10-29T09:23:43;15.70;99.90
53711;DHT22;39605;52.704;6.752;2022-10-29T09:26:29;16.10;99.90
53711;DHT22;39605;52.704;6.752;2022-10-29T09:31:46;16.90;99.90
53711;DHT22;39605;52.704;6.752;2022-10-29T09:34:23;17.10;99.90
53711;DHT22;39605;52.704;6.752;2022-10-29T09:36:50;17.00;99.90
53711;DHT22;39605;52.704;6.752;2022-10-29T09:39:32;17.00;99.90
53711;DHT22;39605;52.704;6.752;2022-10-29T09:42:00;17.00;99.90
53711;DHT22;39605;52.704;6.752;2022-10-29T09:44:37;17.10;99.90
53711;DHT22;39605;52.704;6.752;2022-10-29T09:47:36;17.40;99.90
53711;DHT22;39605;52.704;6.752;2022-10-29T09:50:13;17.80;99.90
53711;DHT22;39605;52.704;6.752;2022-10-29T09:52:43;18.10;99.90
53711;DHT22;39605;52.704;6.752;2022-10-29T09:55:37;18.00;99.90
53711;DHT22;39605;52.704;6.752;2022-10-29T09:58:05;17.90;99.90
53711;DHT22;39605;52.704;6.752;2022-10-29T10:00:31;17.80;99.90
53711;DHT22;39605;52.704;6.752;2022-10-29T10:03:02;17.70;99.90
53711;DHT22;39605;52.704;6.752;2022-10-29T10:05:31;17.60;99.90
53711;DHT22;39605;52.704;6.752;2022-10-29T10:08:11;17.50;99.90
53711;DHT22;39605;52.704;6.752;2022-10-29T10:10:54;17.50;99.90
53711;DHT22;39605;52.704;6.752;2022-10-29T10:13:22;17.50;99.90
53711;DHT22;39605;52.704;6.752;2022-10-29T10:15:51;17.40;99.90
53711;DHT22;39605;52.704;6.752;2022-10-29T10:18:20;17.50;99.90
53711;DHT22;39605;52.704;6.752;2022-10-29T10:23:51;17.50;99.90
53711;DHT22;39605;52.704;6.752;2022-10-29T10:29:15;17.70;99.90
53711;DHT22;39605;52.704;6.752;2022-10-29T10:31:43;18.00;99.90
53711;DHT22;39605;52.704;6.752;2022-10-29T10:34:23;18.10;99.90
53711;DHT22;39605;52.704;6.752;2022-10-29T10:39:46;18.10;99.90
53711;DHT22;39605;52.704;6.752;2022-10-29T10:47:22;18.00;99.90
53711;DHT22;39605;52.704;6.752;2022-10-29T10:49:49;18.10;99.90
53711;DHT22;39605;52.704;6.752;2022-10-29T10:54:55;18.50;99.90
53711;DHT22;39605;52.704;6.752;2022-10-29T10:57:25;18.60;99.90
53711;DHT22;39605;52.704;6.752;2022-10-29T11:00:16;18.50;99.90
53711;DHT22;39605;52.704;6.752;2022-10-29T11:08:41;18.40;99.90
53711;DHT22;39605;52.704;6.752;2022-10-29T11:13:49;18.30;99.90
53711;DHT22;39605;52.704;6.752;2022-10-29T11:16:20;18.30;99.90
53711;DHT22;39605;52.704;6.752;2022-10-29T11:18:49;18.30;99.90
53711;DHT22;39605;52.704;6.752;2022-10-29T11:26:43;18.30;99.90
53711;DHT22;39605;52.704;6.752;2022-10-29T11:29:30;18.40;99.90
53711;DHT22;39605;52.704;6.752;2022-10-29T11:32:20;18.40;99.90
53711;DHT22;39605;52.704;6.752;2022-10-29T11:35:15;18.30;99.90
53711;DHT22;39605;52.704;6.752;2022-10-29T11:37:52;18.30;99.90
53711;DHT22;39605;52.704;6.752;2022-10-29T11:43:11;18.30;99.90
53711;DHT22;39605;52.704;6.752;2022-10-29T11:48:48;18.30;99.90
53711;DHT22;39605;52.704;6.752;2022-10-29T11:56:51;18.60;99.90
53711;DHT22;39605;52.704;6.752;2022-10-29T12:02:12;18.70;99.90
53711;DHT22;39605;52.704;6.752;2022-10-29T12:04:52;18.80;99.90
53711;DHT22;39605;52.704;6.752;2022-10-29T12:07:27;18.80;99.90
53711;DHT22;39605;52.704;6.752;2022-10-29T12:21:15;19.30;99.90
53711;DHT22;39605;52.704;6.752;2022-10-29T12:29:19;20.00;99.90
53711;DHT22;39605;52.704;6.752;2022-10-29T12:34:26;19.80;99.90
53711;DHT22;39605;52.704;6.752;2022-10-29T12:37:04;19.60;99.90
53711;DHT22;39605;52.704;6.752;2022-10-29T12:39:35;19.50;99.90
53711;DHT22;39605;52.704;6.752;2022-10-29T12:42:11;19.40;99.90
53711;DHT22;39605;52.704;6.752;2022-10-29T12:47:13;19.30;99.90
53711;DHT22;39605;52.704;6.752;2022-10-29T12:55:36;19.30;99.90
53711;DHT22;39605;52.704;6.752;2022-10-29T13:01:04;19.50;99.90
53711;DHT22;39605;52.704;6.752;2022-10-29T13:03:58;19.60;99.90
53711;DHT22;39605;52.704;6.752;2022-10-29T13:07:03;19.60;99.90
53711;DHT22;39605;52.704;6.752;2022-10-29T13:09:35;19.70;99.90
53711;DHT22;39605;52.704;6.752;2022-10-29T13:12:10;19.80;99.90
53711;DHT22;39605;52.704;6.752;2022-10-29T13:14:48;19.80;99.90
53711;DHT22;39605;52.704;6.752;2022-10-29T13:17:30;19.90;99.90
53711;DHT22;39605;52.704;6.752;2022-10-29T13:19:59;19.90;99.90
53711;DHT22;39605;52.704;6.752;2022-10-29T13:38:18;19.60;99.90
53711;DHT22;39605;52.704;6.752;2022-10-29T13:43:56;19.50;99.90
53711;DHT22;39605;52.704;6.752;2022-10-29T13:46:32;19.60;99.90
53711;DHT22;39605;52.704;6.752;2022-10-29T13:49:04;19.70;99.90
53711;DHT22;39605;52.704;6.752;2022-10-29T13:51:41;19.70;99.90
53711;DHT22;39605;52.704;6.752;2022-10-29T13:56:58;20.00;99.90
53711;DHT22;39605;52.704;6.752;2022-10-29T13:59:39;20.10;99.90
53711;DHT22;39605;52.704;6.752;2022-10-29T14:02:28;20.20;99.90
53711;DHT22;39605;52.704;6.752;2022-10-29T14:08:00;20.30;99.90
53711;DHT22;39605;52.704;6.752;2022-10-29T14:10:48;20.40;99.90
53711;DHT22;39605;52.704;6.752;2022-10-29T14:16:23;20.50;99.90
53711;DHT22;39605;52.704;6.752;2022-10-29T14:18:51;20.50;99.90
53711;DHT22;39605;52.704;6.752;2022-10-29T14:24:09;20.50;99.90
53711;DHT22;39605;52.704;6.752;2022-10-29T14:26:38;20.50;99.90
53711;DHT22;39605;52.704;6.752;2022-10-29T14:29:13;20.50;99.90
53711;DHT22;39605;52.704;6.752;2022-10-29T14:31:41;20.40;99.90
53711;DHT22;39605;52.704;6.752;2022-10-29T14:34:27;20.30;99.90
53711;DHT22;39605;52.704;6.752;2022-10-29T14:36:56;20.20;99.90
53711;DHT22;39605;52.704;6.752;2022-10-29T14:39:34;20.10;99.90
53711;DHT22;39605;52.704;6.752;2022-10-29T14:42:01;20.00;99.90
53711;DHT22;39605;52.704;6.752;2022-10-29T14:44:31;19.90;99.90
53711;DHT22;39605;52.704;6.752;2022-10-29T14:47:06;19.80;99.90
53711;DHT22;39605;52.704;6.752;2022-10-29T14:49:37;19.70;99.90
53711;DHT22;39605;52.704;6.752;2022-10-29T14:52:06;19.70;99.90
53711;DHT22;39605;52.704;6.752;2022-10-29T14:54:40;19.70;99.90
53711;DHT22;39605;52.704;6.752;2022-10-29T14:57:15;19.60;99.90
53711;DHT22;39605;52.704;6.752;2022-10-29T14:59:49;19.70;99.90
53711;DHT22;39605;52.704;6.752;2022-10-29T15:02:16;19.60;99.90
53711;DHT22;39605;52.704;6.752;2022-10-29T15:04:56;19.60;99.90
53711;DHT22;39605;52.704;6.752;2022-10-29T15:07:28;19.60;99.90
53711;DHT22;39605;52.704;6.752;2022-10-29T15:12:39;19.50;99.90
53711;DHT22;39605;52.704;6.752;2022-10-29T15:15:22;19.40;99.90
53711;DHT22;39605;52.704;6.752;2022-10-29T15:18:14;19.40;99.90
53711;DHT22;39605;52.704;6.752;2022-10-29T15:23:27;19.30;99.90
53711;DHT22;39605;52.704;6.752;2022-10-29T15:26:00;19.20;99.90
53711;DHT22;39605;52.704;6.752;2022-10-29T15:28:29;19.10;99.90
53711;DHT22;39605;52.704;6.752;2022-10-29T15:30:55;19.00;99.90
53711;DHT22;39605;52.704;6.752;2022-10-29T15:33:26;18.90;99.90
53711;DHT22;39605;52.704;6.752;2022-10-29T15:35:57;18.80;99.90
53711;DHT22;39605;52.704;6.752;2022-10-29T15:43:54;18.50;99.90
53711;DHT22;39605;52.704;6.752;2022-10-29T15:46:34;18.40;99.90
53711;DHT22;39605;52.704;6.752;2022-10-29T15:49:14;18.30;99.90
53711;DHT22;39605;52.704;6.752;2022-10-29T15:51:39;18.20;99.90
53711;DHT22;39605;52.704;6.752;2022-10-29T15:54:10;18.10;99.90
53711;DHT22;39605;52.704;6.752;2022-10-29T15:56:38;18.10;99.90
53711;DHT22;39605;52.704;6.752;2022-10-29T15:59:05;18.00;99.90
53711;DHT22;39605;52.704;6.752;2022-10-29T16:01:31;17.90;99.90
53711;DHT22;39605;52.704;6.752;2022-10-29T16:03:56;17.80;99.90
53711;DHT22;39605;52.704;6.752;2022-10-29T16:06:22;17.80;99.90
53711;DHT22;39605;52.704;6.752;2022-10-29T16:08:50;17.70;99.90
53711;DHT22;39605;52.704;6.752;2022-10-29T16:11:20;17.60;99.90
53711;DHT22;39605;52.704;6.752;2022-10-29T16:13:46;17.60;99.90
53711;DHT22;39605;52.704;6.752;2022-10-29T16:16:16;17.60;99.90
53711;DHT22;39605;52.704;6.752;2022-10-29T16:18:43;17.50;99.90
53711;DHT22;39605;52.704;6.752;2022-10-29T16:21:13;17.50;99.90
53711;DHT22;39605;52.704;6.752;2022-10-29T16:23:39;17.40;99.90
53711;DHT22;39605;52.704;6.752;2022-10-29T16:26:08;17.40;99.90
53711;DHT22;39605;52.704;6.752;2022-10-29T16:28:34;17.40;99.90
53711;DHT22;39605;52.704;6.752;2022-10-29T16:30:59;17.40;99.90
53711;DHT22;39605;52.704;6.752;2022-10-29T16:33:25;17.30;99.90
53711;DHT22;39605;52.704;6.752;2022-10-29T16:35:51;17.30;99.90
53711;DHT22;39605;52.704;6.752;2022-10-29T16:38:17;17.30;99.90
53711;DHT22;39605;52.704;6.752;2022-10-29T16:40:43;17.30;99.90
53711;DHT22;39605;52.704;6.752;2022-10-29T16:43:10;17.30;99.90
53711;DHT22;39605;52.704;6.752;2022-10-29T16:45:35;17.20;99.90
53711;DHT22;39605;52.704;6.752;2022-10-29T16:48:01;17.20;99.90
53711;DHT22;39605;52.704;6.752;2022-10-29T16:50:30;17.20;99.90
53711;DHT22;39605;52.704;6.752;2022-10-29T16:53:02;17.20;99.90
53711;DHT22;39605;52.704;6.752;2022-10-29T16:55:28;17.20;99.90
53711;DHT22;39605;52.704;6.752;2022-10-29T16:57:55;17.10;99.90
53711;DHT22;39605;52.704;6.752;2022-10-29T17:00:21;17.10;99.90
53711;DHT22;39605;52.704;6.752;2022-10-29T17:02:46;17.10;99.90
53711;DHT22;39605;52.704;6.752;2022-10-29T17:05:12;17.10;99.90
53711;DHT22;39605;52.704;6.752;2022-10-29T17:07:38;17.10;99.90
53711;DHT22;39605;52.704;6.752;2022-10-29T17:10:04;17.00;99.90
53711;DHT22;39605;52.704;6.752;2022-10-29T17:12:31;17.00;99.90
53711;DHT22;39605;52.704;6.752;2022-10-29T17:14:56;17.00;99.90
53711;DHT22;39605;52.704;6.752;2022-10-29T17:17:22;17.00;99.90
53711;DHT22;39605;52.704;6.752;2022-10-29T17:19:47;17.00;99.90
53711;DHT22;39605;52.704;6.752;2022-10-29T17:22:13;17.00;99.90
53711;DHT22;39605;52.704;6.752;2022-10-29T17:24:44;17.00;99.90
53711;DHT22;39605;52.704;6.752;2022-10-29T17:27:11;16.90;99.90
53711;DHT22;39605;52.704;6.752;2022-10-29T17:29:37;16.90;99.90
53711;DHT22;39605;52.704;6.752;2022-10-29T17:32:04;16.90;99.90
53711;DHT22;39605;52.704;6.752;2022-10-29T17:34:30;16.90;99.90
53711;DHT22;39605;52.704;6.752;2022-10-29T17:36:56;16.80;99.90
53711;DHT22;39605;52.704;6.752;2022-10-29T17:39:22;16.80;99.90
53711;DHT22;39605;52.704;6.752;2022-10-29T17:41:48;16.80;99.90
53711;DHT22;39605;52.704;6.752;2022-10-29T17:44:14;16.70;99.90
53711;DHT22;39605;52.704;6.752;2022-10-29T17:46:39;16.70;99.90
53711;DHT22;39605;52.704;6.752;2022-10-29T17:49:05;16.70;99.90
53711;DHT22;39605;52.704;6.752;2022-10-29T17:51:31;16.60;99.90
53711;DHT22;39605;52.704;6.752;2022-10-29T17:53:57;16.50;99.90
53711;DHT22;39605;52.704;6.752;2022-10-29T17:56:22;16.50;99.90
53711;DHT22;39605;52.704;6.752;2022-10-29T17:58:49;16.50;99.90
53711;DHT22;39605;52.704;6.752;2022-10-29T18:01:14;16.40;99.90
53711;DHT22;39605;52.704;6.752;2022-10-29T18:03:40;16.40;99.90
53711;DHT22;39605;52.704;6.752;2022-10-29T18:06:08;16.30;99.90
53711;DHT22;39605;52.704;6.752;2022-10-29T18:08:35;16.20;99.90
53711;DHT22;39605;52.704;6.752;2022-10-29T18:13:36;16.10;99.90
53711;DHT22;39605;52.704;6.752;2022-10-29T18:16:11;16.10;99.90
53711;DHT22;39605;52.704;6.752;2022-10-29T18:18:38;16.00;99.90
53711;DHT22;39605;52.704;6.752;2022-10-29T18:21:06;15.90;99.90
53711;DHT22;39605;52.704;6.752;2022-10-29T18:23:32;15.90;99.90
53711;DHT22;39605;52.704;6.752;2022-10-29T18:28:53;15.90;99.90
53711;DHT22;39605;52.704;6.752;2022-10-29T18:31:19;15.90;99.90
53711;DHT22;39605;52.704;6.752;2022-10-29T18:33:45;15.90;99.90
53711;DHT22;39605;52.704;6.752;2022-10-29T18:36:11;15.90;99.90
53711;DHT22;39605;52.704;6.752;2022-10-29T18:38:37;16.00;99.90
53711;DHT22;39605;52.704;6.752;2022-10-29T18:41:03;16.10;99.90